Time;durP1;ratioP1;P1;durP2;ratioP2;P2;SDS_P1;SDS_P2;PMS_P1;PMS_P2;Temp;Humidity;BMP_temperature;BMP_pressure;BME280_temperature;BME280_humidity;BME280_pressure;Samples;Min_cycle;Max_cycle;Signal;HPM_P1;HPM_P2
2022/08/10 00:00:52;;;;;;;;;4.25;4.00;;;;;25.12;35.79;101959.09;5055090;28;67986;-81
2022/08/10 00:03:17;;;;;;;;;3.00;3.00;;;;;25.08;35.83;101960.28;5055810;28;45530;-81
2022/08/10 00:05:42;;;;;;;;;5.00;5.00;;;;;25.05;36.22;101956.97;5071595;28;70838;-81
2022/08/10 00:08:08;;;;;;;;;6.00;4.25;;;;;25.03;36.25;101962.41;5074748;27;67023;-81
2022/08/10 00:10:33;;;;;;;;;7.00;4.75;;;;;25.01;35.59;101952.84;5061798;28;45296;-81
2022/08/10 00:12:59;;;;;;;;;4.00;4.00;;;;;25.00;36.08;101960.00;5061506;28;45500;-81
2022/08/10 00:15:24;;;;;;;;;4.75;4.75;;;;;24.99;36.26;101960.09;5078734;28;61499;-81
2022/08/10 00:17:50;;;;;;;;;4.00;3.00;;;;;24.98;35.87;101955.72;5078476;28;68359;-81
2022/08/10 00:20:16;;;;;;;;;6.00;4.00;;;;;24.97;35.81;101949.53;5079786;28;45387;-81
2022/08/10 00:22:41;;;;;;;;;6.00;4.75;;;;;24.95;35.92;101951.47;5079074;28;45465;-82
2022/08/10 00:25:07;;;;;;;;;3.00;3.00;;;;;24.92;36.20;101957.88;5061052;27;45372;-81
2022/08/10 00:27:32;;;;;;;;;5.25;4.00;;;;;24.91;36.29;101960.63;5079400;28;45360;-81
2022/08/10 00:29:58;;;;;;;;;3.25;3.25;;;;;24.88;36.20;101961.69;5079373;28;45423;-81
2022/08/10 00:32:23;;;;;;;;;4.50;4.00;;;;;24.84;36.31;101957.53;5064912;28;45355;-81
2022/08/10 00:34:49;;;;;;;;;3.50;3.50;;;;;24.81;36.23;101957.75;5040685;28;47222;-81
2022/08/10 00:37:16;;;;;;;;;4.00;4.00;;;;;24.77;36.25;101955.41;5058429;28;45509;-82
2022/08/10 00:39:42;;;;;;;;;3.00;3.00;;;;;24.73;36.51;101958.28;5058988;28;45297;-81
2022/08/10 00:42:09;;;;;;;;;4.25;3.25;;;;;24.68;37.04;101955.13;5058767;28;45559;-81
2022/08/10 00:44:42;;;;;;;;;3.25;3.25;;;;;24.63;36.45;101951.91;5040654;28;46611;-81
2022/08/10 00:47:08;;;;;;;;;4.00;4.00;;;;;24.60;36.57;101953.94;5040815;28;45392;-81
2022/08/10 00:49:34;;;;;;;;;4.00;3.00;;;;;24.57;36.68;101954.97;5058876;28;45379;-81
2022/08/10 00:52:00;;;;;;;;;4.00;3.50;;;;;24.53;37.04;101948.16;5057421;28;69450;-81
2022/08/10 00:54:25;;;;;;;;;6.50;3.50;;;;;24.51;37.10;101942.91;5040225;28;46203;-81
2022/08/10 00:56:51;;;;;;;;;3.00;3.00;;;;;24.49;36.83;101952.81;5058251;28;54400;-81
2022/08/10 00:59:18;;;;;;;;;4.50;3.75;;;;;24.47;37.45;101951.22;5040582;28;45592;-81
2022/08/10 01:01:43;;;;;;;;;4.25;3.00;;;;;24.45;37.54;101950.50;5058543;28;45291;-81
2022/08/10 01:04:09;;;;;;;;;4.00;4.00;;;;;24.45;37.44;101947.81;5062088;28;47933;-81
2022/08/10 01:07:04;;;;;;;;;4.50;4.50;;;;;24.44;37.06;101944.31;5078296;28;45352;-81
2022/08/10 01:09:54;;;;;;;;;3.50;3.50;;;;;24.40;37.05;101941.97;5078836;28;45410;-81
2022/08/10 01:12:49;;;;;;;;;4.50;4.50;;;;;24.37;37.90;101943.03;5060671;28;45380;-81
2022/08/10 01:15:33;;;;;;;;;4.50;3.75;;;;;24.35;36.86;101940.47;5047438;28;46530;-81
2022/08/10 01:18:26;;;;;;;;;3.00;3.00;;;;;24.34;37.64;101937.91;5060402;28;45288;-82
2022/08/10 01:21:24;;;;;;;;;5.00;5.00;;;;;24.31;37.40;101936.31;5077274;28;45364;-81
2022/08/10 01:24:13;;;;;;;;;7.00;5.00;;;;;24.31;37.26;101936.31;5060327;28;45265;-81
2022/08/10 01:26:45;;;;;;;;;4.50;4.50;;;;;24.26;38.01;101938.44;5078253;28;45671;-81
2022/08/10 01:29:49;;;;;;;;;5.00;4.50;;;;;24.22;38.00;101939.59;5078309;28;46053;-81
2022/08/10 01:32:21;;;;;;;;;4.00;4.00;;;;;24.20;37.73;101936.22;5060912;28;45333;-81
2022/08/10 01:34:54;;;;;;;;;3.75;3.75;;;;;24.20;37.42;101928.22;5020244;28;45286;-81
2022/08/10 01:37:25;;;;;;;;;4.00;3.75;;;;;24.20;38.24;101935.34;5020323;28;45548;-81
2022/08/10 01:39:55;;;;;;;;;4.00;4.00;;;;;24.21;37.59;101937.88;5020412;28;45855;-81
2022/08/10 01:42:21;;;;;;;;;4.75;4.25;;;;;24.19;37.36;101937.16;5038095;28;45326;-81
2022/08/10 01:44:52;;;;;;;;;4.25;4.25;;;;;24.18;37.78;101930.09;5020457;28;45277;-81
2022/08/10 01:50:27;;;;;;;;;5.00;4.50;;;;;24.12;37.40;101933.19;4995676;28;45392;-81
2022/08/10 01:53:01;;;;;;;;;3.00;3.00;;;;;24.08;38.35;101937.88;4995965;28;45448;-81
2022/08/10 01:55:28;;;;;;;;;4.50;3.25;;;;;24.04;37.97;101927.56;4995723;28;45276;-81
2022/08/10 01:57:54;;;;;;;;;3.50;3.00;;;;;23.99;37.87;101925.19;4995892;28;45496;-81
2022/08/10 02:00:20;;;;;;;;;4.00;4.00;;;;;23.96;38.55;101926.25;4978565;28;69169;-81
2022/08/10 02:02:46;;;;;;;;;3.75;3.75;;;;;23.93;38.94;101929.09;4994932;28;63193;-81
2022/08/10 02:05:12;;;;;;;;;4.00;3.75;;;;;23.88;38.73;101922.41;5007143;28;47400;-81
2022/08/10 02:07:38;;;;;;;;;4.00;4.00;;;;;23.82;38.93;101920.16;5015300;28;45421;-81
2022/08/10 02:10:08;;;;;;;;;4.75;3.00;;;;;23.78;39.15;101919.47;4998874;28;45422;-81
2022/08/10 02:12:35;;;;;;;;;3.50;3.50;;;;;23.75;39.65;101914.34;4998786;28;45522;-81
2022/08/10 02:15:04;;;;;;;;;4.00;4.00;;;;;23.72;39.04;101919.88;4997646;28;70243;-81
2022/08/10 02:17:36;;;;;;;;;5.75;5.00;;;;;23.68;39.15;101916.56;5014999;28;46727;-81
2022/08/10 02:20:06;;;;;;;;;4.75;3.75;;;;;23.65;39.28;101927.41;4998089;28;45487;-81
2022/08/10 02:22:33;;;;;;;;;5.50;5.50;;;;;23.63;39.87;101931.13;4998614;28;45411;-81
2022/08/10 02:24:59;;;;;;;;;5.00;5.00;;;;;23.59;40.05;101925.16;5045575;28;45618;-81
2022/08/10 02:27:25;;;;;;;;;6.50;5.00;;;;;23.56;39.76;101925.34;5059331;28;46528;-81
2022/08/10 02:29:52;;;;;;;;;4.00;4.00;;;;;23.53;39.59;101925.53;5077256;28;51512;-81
2022/08/10 02:32:19;;;;;;;;;6.75;6.25;;;;;23.52;39.33;101932.66;5045237;28;45474;-81
2022/08/10 02:34:45;;;;;;;;;6.50;5.25;;;;;23.51;39.92;101928.31;5038831;28;45527;-81
2022/08/10 02:37:12;;;;;;;;;4.25;3.75;;;;;23.48;40.60;101928.50;5038116;28;69661;-81
2022/08/10 02:39:37;;;;;;;;;4.75;4.00;;;;;23.44;40.44;101927.00;5038217;28;67728;-81
2022/08/10 02:42:09;;;;;;;;;7.25;5.00;;;;;23.41;40.38;101929.84;5038557;28;61139;-81
2022/08/10 02:44:37;;;;;;;;;9.00;5.50;;;;;23.38;39.95;101930.91;5057248;28;45467;-81
2022/08/10 02:47:14;;;;;;;;;6.00;4.50;;;;;23.38;40.01;101935.34;5038675;28;46599;-81
2022/08/10 02:49:56;;;;;;;;;3.75;3.75;;;;;23.36;40.01;101934.59;5038912;28;45738;-81
2022/08/10 02:52:29;;;;;;;;;6.25;5.00;;;;;23.33;40.44;101938.31;5039091;28;45328;-81
2022/08/10 02:55:04;;;;;;;;;3.75;3.75;;;;;23.29;40.39;101930.63;5038979;28;45418;-81
2022/08/10 02:57:36;;;;;;;;;4.50;4.50;;;;;23.29;39.95;101931.50;5056933;28;47095;-81
2022/08/10 03:00:08;;;;;;;;;6.50;5.25;;;;;23.29;39.99;101928.84;5056792;28;45881;-81
2022/08/10 03:02:38;;;;;;;;;4.50;3.75;;;;;23.28;40.27;101935.09;5056786;28;45432;-81
2022/08/10 03:05:08;;;;;;;;;5.50;5.00;;;;;23.24;40.55;101944.22;5068239;28;45590;-81
2022/08/10 03:07:42;;;;;;;;;5.75;5.00;;;;;23.22;39.92;101945.28;5058578;28;47304;-81
2022/08/10 03:10:19;;;;;;;;;5.00;5.00;;;;;23.18;40.56;101939.28;5058560;28;45367;-80
2022/08/10 03:12:48;;;;;;;;;4.00;4.00;;;;;23.15;41.21;101940.31;5059089;28;45352;-81
2022/08/10 03:15:14;;;;;;;;;5.00;5.00;;;;;23.11;40.90;101932.66;5076932;28;45350;-81
2022/08/10 03:17:40;;;;;;;;;4.50;4.50;;;;;23.09;41.21;101934.56;5076304;28;46298;-81
2022/08/10 03:20:06;;;;;;;;;3.50;2.50;;;;;23.06;41.31;101934.75;5057601;28;65400;-81
2022/08/10 03:22:31;;;;;;;;;5.25;5.00;;;;;23.02;40.83;101930.56;5076741;28;45383;-81
2022/08/10 03:24:58;;;;;;;;;5.75;3.75;;;;;23.02;40.83;101933.22;5076112;28;57459;-80
2022/08/10 03:27:24;;;;;;;;;5.00;4.25;;;;;23.01;40.86;101924.38;5075637;28;72279;-81
2022/08/10 03:29:50;;;;;;;;;5.00;5.00;;;;;23.01;40.77;101921.72;5058375;28;45430;-81
2022/08/10 03:32:16;;;;;;;;;6.00;5.75;;;;;23.03;41.38;101917.19;5043813;28;68634;-81
2022/08/10 03:34:42;;;;;;;;;5.75;5.00;;;;;23.03;40.83;101917.19;5037444;28;66935;-81
2022/08/10 03:37:07;;;;;;;;;5.00;5.00;;;;;23.05;40.62;101919.75;5037110;28;75115;-81
2022/08/10 03:39:32;;;;;;;;;6.25;4.50;;;;;23.06;40.79;101919.66;5055076;28;72962;-81
2022/08/10 03:42:00;;;;;;;;;4.50;4.00;;;;;23.03;41.56;101922.50;5055328;28;69342;-81
2022/08/10 03:44:31;;;;;;;;;4.75;4.50;;;;;23.00;40.83;101934.13;5037029;28;45425;-81
2022/08/10 03:47:01;;;;;;;;;7.50;6.50;;;;;22.98;41.47;101928.06;5037567;28;45510;-81
2022/08/10 03:49:29;;;;;;;;;7.00;4.25;;;;;22.96;41.79;101929.97;5038060;28;45329;-80
2022/08/10 03:51:56;;;;;;;;;5.75;5.75;;;;;22.91;42.06;101929.41;5038106;28;45440;-80
2022/08/10 03:54:22;;;;;;;;;4.00;4.00;;;;;22.84;42.15;101929.88;5037834;28;45397;-81
2022/08/10 03:56:47;;;;;;;;;5.25;5.25;;;;;22.79;42.24;101932.84;5037022;28;71575;-81
2022/08/10 03:59:14;;;;;;;;;7.25;5.50;;;;;22.72;42.27;101929.69;5055482;28;56879;-80
2022/08/10 04:01:44;;;;;;;;;6.25;5.25;;;;;22.68;42.36;101930.84;5055901;28;45381;-81
2022/08/10 04:04:10;;;;;;;;;6.00;5.25;;;;;22.65;42.79;101924.88;5042015;28;45550;-81
2022/08/10 04:06:36;;;;;;;;;5.50;5.50;;;;;22.61;43.07;101926.84;5075889;28;46560;-81
2022/08/10 04:09:02;;;;;;;;;6.75;5.00;;;;;22.57;42.52;101925.34;5057760;28;45877;-81
2022/08/10 04:11:27;;;;;;;;;6.00;5.50;;;;;22.53;42.08;101922.00;5058093;28;45398;-80
2022/08/10 04:13:52;;;;;;;;;5.50;4.50;;;;;22.53;41.87;101931.75;5075143;28;70220;-81
2022/08/10 04:16:18;;;;;;;;;5.50;4.50;;;;;22.54;42.05;101926.34;5075066;28;63076;-81
2022/08/10 04:18:43;;;;;;;;;4.50;4.25;;;;;22.55;41.74;101921.94;5074853;28;67273;-81
2022/08/10 04:21:18;;;;;;;;;5.25;5.25;;;;;22.56;42.64;101920.97;5075339;28;62503;-80
2022/08/10 04:23:46;;;;;;;;;5.25;5.25;;;;;22.55;42.01;101916.63;5057827;28;45454;-80
2022/08/10 04:26:12;;;;;;;;;5.25;5.00;;;;;22.55;42.63;101927.22;5066191;28;45666;-80
2022/08/10 04:28:38;;;;;;;;;6.50;5.00;;;;;22.55;41.90;101924.56;5075490;27;45787;-80
2022/08/10 04:31:05;;;;;;;;;6.00;4.25;;;;;22.54;42.27;101929.00;5074573;28;45260;-80
2022/08/10 04:33:31;;;;;;;;;6.25;5.50;;;;;22.51;43.17;101928.34;5074617;28;45417;-80
2022/08/10 04:35:57;;;;;;;;;5.00;5.00;;;;;22.47;43.24;101935.63;5108479;27;45498;-80
2022/08/10 04:38:24;;;;;;;;;6.75;5.25;;;;;22.44;43.45;101932.34;5108570;27;45404;-81
2022/08/10 04:40:50;;;;;;;;;6.00;5.00;;;;;22.40;43.70;101936.97;5074725;28;45505;-81
2022/08/10 04:43:15;;;;;;;;;6.75;5.00;;;;;22.36;43.64;101933.66;5107222;27;69222;-80
2022/08/10 04:45:42;;;;;;;;;8.00;4.75;;;;;22.32;43.89;101936.56;5074415;28;72131;-81
2022/08/10 04:48:07;;;;;;;;;5.25;5.25;;;;;22.29;43.69;101942.91;5075511;28;45772;-81
2022/08/10 04:50:32;;;;;;;;;7.50;5.50;;;;;22.24;43.62;101937.84;5074797;28;64340;-81
2022/08/10 04:52:58;;;;;;;;;6.00;5.00;;;;;22.22;44.28;101945.03;5074617;28;69948;-80
2022/08/10 04:55:23;;;;;;;;;5.00;5.00;;;;;22.19;44.01;101941.69;5076376;28;68987;-80
2022/08/10 04:57:48;;;;;;;;;3.50;2.50;;;;;22.16;43.32;101940.09;5077758;28;72891;-80
2022/08/10 05:00:14;;;;;;;;;6.25;5.00;;;;;22.18;44.33;101938.22;5078966;28;45430;-81
2022/08/10 05:02:39;;;;;;;;;10.75;6.00;;;;;22.16;44.63;101949.84;5079014;28;45519;-80
2022/08/10 05:05:05;;;;;;;;;7.75;5.75;;;;;22.14;43.63;101955.25;5078614;27;46155;-80
2022/08/10 05:07:30;;;;;;;;;5.75;5.75;;;;;22.20;44.63;101951.38;5077438;28;45344;-80
2022/08/10 05:09:56;;;;;;;;;4.75;4.75;;;;;22.22;43.92;101952.13;5078739;28;50205;-80
2022/08/10 05:12:21;;;;;;;;;7.00;6.00;;;;;22.21;44.33;101953.06;5077541;27;69840;-81
2022/08/10 05:14:47;;;;;;;;;6.75;6.50;;;;;22.15;44.35;101956.94;5078736;28;46189;-80
2022/08/10 05:17:12;;;;;;;;;5.50;5.00;;;;;22.12;44.74;101953.59;5078713;28;45312;-81
2022/08/10 05:19:38;;;;;;;;;4.00;4.00;;;;;22.08;44.58;101955.59;5077567;27;69344;-81
2022/08/10 05:22:03;;;;;;;;;6.25;5.50;;;;;22.06;44.54;101951.31;5078681;28;45352;-81
2022/08/10 05:24:30;;;;;;;;;6.75;5.00;;;;;22.07;45.62;101953.91;5078423;28;47272;-81
2022/08/10 05:26:55;;;;;;;;;6.00;4.00;;;;;22.06;44.91;101959.28;5076751;28;45669;-80
2022/08/10 05:29:20;;;;;;;;;5.00;3.25;;;;;22.01;44.78;101955.09;5077783;27;63353;-81
2022/08/10 05:31:46;;;;;;;;;6.00;5.50;;;;;22.01;44.70;101965.72;5077838;27;59031;-80
2022/08/10 05:34:11;;;;;;;;;4.50;4.50;;;;;22.04;44.81;101959.38;5077519;28;70230;-81
2022/08/10 05:36:37;;;;;;;;;0.00;0.00;;;;;22.02;44.74;101964.75;5111239;27;45428;-81
2022/08/10 05:39:03;;;;;;;;;10.75;6.00;;;;;22.01;45.01;101965.72;5110442;27;69300;-81
2022/08/10 05:41:29;;;;;;;;;4.25;4.25;;;;;22.01;45.26;101967.50;5077341;27;59613;-81
2022/08/10 05:43:55;;;;;;;;;8.25;6.00;;;;;22.02;45.96;101958.59;5110257;27;71779;-81
2022/08/10 05:46:21;;;;;;;;;7.50;5.75;;;;;22.06;45.29;101969.88;5077997;28;45509;-81
2022/08/10 05:48:48;;;;;;;;;5.00;4.00;;;;;21.99;45.46;101964.94;5077493;28;65061;-81
2022/08/10 05:51:14;;;;;;;;;5.00;5.00;;;;;22.01;45.58;101962.22;5076904;28;45378;-80
2022/08/10 05:53:40;;;;;;;;;5.00;5.00;;;;;22.05;45.51;101961.09;5077940;28;46450;-80
2022/08/10 05:56:06;;;;;;;;;7.75;6.25;;;;;22.03;45.21;101963.81;5075327;28;69162;-81
2022/08/10 05:58:36;;;;;;;;;8.00;6.75;;;;;22.00;44.87;101974.59;5111106;27;45350;-81
2022/08/10 06:01:05;;;;;;;;;8.00;6.25;;;;;22.03;45.98;101970.94;5076772;28;45375;-80
2022/08/10 06:03:37;;;;;;;;;5.00;4.75;;;;;22.02;45.75;101962.09;5077852;28;45525;-80
2022/08/10 06:06:05;;;;;;;;;8.25;7.00;;;;;22.06;45.52;101967.22;5109732;27;45304;-81
2022/08/10 06:08:32;;;;;;;;;5.00;5.00;;;;;22.12;46.08;101964.22;5076382;28;46895;-80
2022/08/10 06:11:01;;;;;;;;;5.00;5.00;;;;;22.17;46.45;101964.81;5076224;28;45376;-80
2022/08/10 06:16:11;;;;;;;;;8.50;6.25;;;;;22.28;45.81;101961.56;5077702;28;45840;-80
2022/08/10 06:18:37;;;;;;;;;8.50;7.00;;;;;22.30;45.14;101970.28;5077771;28;45327;-80
2022/08/10 06:21:03;;;;;;;;;7.00;7.00;;;;;22.31;45.35;101966.69;5077712;27;45396;-81
2022/08/10 06:23:30;;;;;;;;;6.50;5.50;;;;;22.36;45.74;101964.59;5076509;28;46643;-80
2022/08/10 06:25:55;;;;;;;;;8.00;6.00;;;;;22.42;46.61;101975.72;5077245;28;46335;-81
2022/08/10 06:28:22;;;;;;;;;6.50;6.00;;;;;22.48;46.89;101976.31;5077878;28;45273;-81
2022/08/10 06:30:49;;;;;;;;;6.00;6.00;;;;;22.50;45.94;101967.28;5076396;28;45303;-81
2022/08/10 06:33:16;;;;;;;;;9.00;5.00;;;;;22.55;46.89;101972.34;5075144;28;74806;-81
2022/08/10 06:35:42;;;;;;;;;6.50;6.00;;;;;22.57;45.73;101976.59;5075213;28;64771;-80
2022/08/10 06:38:08;;;;;;;;;7.00;6.00;;;;;22.63;44.71;101971.88;5109499;27;69161;-80
2022/08/10 06:40:39;;;;;;;;;5.50;5.50;;;;;22.71;45.20;101980.22;5110078;27;45757;-80
2022/08/10 06:43:08;;;;;;;;;6.75;6.75;;;;;22.77;44.74;101977.19;5110467;27;46759;-80
2022/08/10 06:45:41;;;;;;;;;8.00;6.50;;;;;22.84;44.17;101970.53;5077131;28;45773;-80
2022/08/10 06:48:26;;;;;;;;;12.75;7.50;;;;;22.90;43.59;101972.84;5076167;28;45340;-80
2022/08/10 06:50:56;;;;;;;;;6.75;6.00;;;;;22.93;43.52;101974.44;5110271;27;45371;-81
2022/08/10 06:53:29;;;;;;;;;7.25;6.25;;;;;22.95;43.49;101975.19;5110011;27;45440;-80
2022/08/10 06:55:57;;;;;;;;;8.25;7.25;;;;;22.95;43.63;101981.34;5075730;28;45845;-80
2022/08/10 06:58:33;;;;;;;;;7.00;7.00;;;;;22.99;42.97;101980.25;5110151;27;45341;-80
2022/08/10 07:01:01;;;;;;;;;9.00;6.00;;;;;23.00;43.21;101971.31;5110243;27;45399;-80
2022/08/10 07:03:34;;;;;;;;;6.75;4.75;;;;;23.03;42.45;101975.59;5109658;27;47161;-80
2022/08/10 07:06:00;;;;;;;;;6.50;6.50;;;;;23.07;42.91;101985.09;5109869;27;45312;-81
2022/08/10 07:08:27;;;;;;;;;7.50;7.50;;;;;23.10;42.56;101986.72;5075288;28;45238;-81
2022/08/10 07:10:53;;;;;;;;;5.75;5.75;;;;;23.13;42.29;101984.72;5075927;28;45371;-81
2022/08/10 07:13:19;;;;;;;;;6.25;5.75;;;;;23.15;42.13;101987.28;5076967;28;46413;-80
2022/08/10 07:15:48;;;;;;;;;9.50;6.75;;;;;23.19;42.20;101978.16;5076582;27;45356;-81
2022/08/10 07:18:14;;;;;;;;;7.75;7.00;;;;;23.21;42.01;101980.72;5075363;28;45342;-81
2022/08/10 07:20:41;;;;;;;;;10.50;9.00;;;;;23.27;41.93;101983.00;5075171;28;52401;-80
2022/08/10 07:23:08;;;;;;;;;9.00;7.75;;;;;23.32;42.62;101995.03;5075060;28;45534;-80
2022/08/10 07:25:33;;;;;;;;;9.50;6.00;;;;;23.37;42.13;101984.97;5076474;28;45333;-80
2022/08/10 07:28:00;;;;;;;;;6.75;6.75;;;;;23.44;42.31;101984.56;5075593;28;45418;-80
2022/08/10 07:30:29;;;;;;;;;5.50;5.50;;;;;23.49;41.73;101983.34;5075349;28;45490;-79
2022/08/10 07:32:55;;;;;;;;;9.50;8.00;;;;;23.54;41.84;101980.41;5074910;28;46481;-80
2022/08/10 07:35:21;;;;;;;;;9.50;6.25;;;;;23.56;41.44;101975.84;5076390;28;47494;-81
2022/08/10 07:37:50;;;;;;;;;8.25;7.25;;;;;23.58;42.47;101980.09;5076052;28;45332;-80
2022/08/10 07:40:20;;;;;;;;;7.50;7.00;;;;;23.61;41.68;101976.41;5109343;27;45366;-81
2022/08/10 07:42:48;;;;;;;;;10.75;7.00;;;;;23.67;41.66;101985.78;5109231;27;45561;-81
2022/08/10 07:45:14;;;;;;;;;8.25;7.25;;;;;23.73;42.12;101980.06;5074876;28;45819;-81
2022/08/10 07:48:00;;;;;;;;;7.00;7.00;;;;;23.79;41.34;101987.66;5108242;27;68544;-80
2022/08/10 07:50:26;;;;;;;;;7.25;7.25;;;;;23.84;40.96;101980.22;5075095;28;45381;-81
2022/08/10 07:52:54;;;;;;;;;7.25;6.25;;;;;23.90;41.07;101979.84;5091427;27;47509;-81
2022/08/10 07:55:20;;;;;;;;;9.00;8.25;;;;;23.94;41.28;101986.66;5109114;27;45450;-81
2022/08/10 07:57:48;;;;;;;;;9.25;7.00;;;;;24.00;40.69;101990.72;5108968;27;45374;-81
2022/08/10 08:00:14;;;;;;;;;10.50;6.75;;;;;24.07;40.77;101992.03;5091884;27;45436;-81
2022/08/10 08:02:55;;;;;;;;;8.25;7.50;;;;;24.12;40.84;101989.91;5076002;28;45359;-81
2022/08/10 08:05:25;;;;;;;;;8.00;7.25;;;;;24.19;40.76;101994.81;5108862;27;45365;-81
2022/08/10 08:07:52;;;;;;;;;6.50;6.50;;;;;24.24;40.44;101998.88;5075865;27;45418;-81
2022/08/10 08:10:18;;;;;;;;;10.25;7.00;;;;;24.29;40.47;101999.44;5074820;28;45498;-81
2022/08/10 08:12:44;;;;;;;;;9.00;8.00;;;;;24.37;39.95;101996.25;5074682;28;46155;-81
2022/08/10 08:15:12;;;;;;;;;5.50;4.75;;;;;24.43;40.19;101998.50;5074691;28;45438;-81
2022/08/10 08:17:38;;;;;;;;;9.25;7.00;;;;;24.48;39.96;101992.84;5074533;28;45496;-81
2022/08/10 08:20:04;;;;;;;;;9.50;8.00;;;;;24.56;39.71;101984.38;5074772;28;45363;-81
2022/08/10 08:22:30;;;;;;;;;7.50;7.00;;;;;24.62;39.58;101976.81;5074015;28;46657;-81
2022/08/10 08:24:56;;;;;;;;;7.00;6.00;;;;;24.68;40.02;101973.75;5074463;28;68439;-81
2022/08/10 08:27:22;;;;;;;;;8.75;6.50;;;;;24.74;39.91;101972.47;5074457;28;45372;-81
2022/08/10 08:29:50;;;;;;;;;8.00;6.25;;;;;24.81;39.51;101975.53;5075485;28;45304;-81
2022/08/10 08:32:17;;;;;;;;;7.00;6.50;;;;;24.88;38.81;101966.16;5077857;28;46240;-81
2022/08/10 08:34:43;;;;;;;;;7.00;6.75;;;;;24.95;38.76;101967.44;5078046;28;45312;-81
2022/08/10 08:37:10;;;;;;;;;9.00;7.00;;;;;25.02;38.85;101971.38;5111906;27;45485;-81
2022/08/10 08:39:36;;;;;;;;;6.00;6.00;;;;;25.08;38.55;101962.94;5077891;28;45343;-81
2022/08/10 08:42:33;;;;;;;;;10.25;7.75;;;;;25.16;38.67;101964.22;5077891;28;45452;-81
2022/08/10 08:45:13;;;;;;;;;8.75;7.25;;;;;25.23;38.77;101963.69;5079512;28;45298;-81
2022/08/10 08:48:15;;;;;;;;;10.50;7.50;;;;;25.32;38.17;101967.50;5079717;28;45378;-81
2022/08/10 08:51:10;;;;;;;;;8.50;6.00;;;;;25.43;38.26;101961.41;5111849;27;45403;-81
2022/08/10 08:54:01;;;;;;;;;7.00;7.00;;;;;25.54;38.06;101963.28;5111936;27;45456;-81
2022/08/10 08:56:40;;;;;;;;;7.25;7.00;;;;;25.60;37.60;101965.50;5112079;27;45395;-82
2022/08/10 08:59:29;;;;;;;;;7.50;7.50;;;;;25.67;37.64;101956.94;5112214;27;45444;-81
2022/08/10 09:02:22;;;;;;;;;8.50;7.00;;;;;25.76;37.35;101949.22;5112065;27;45428;-81
2022/08/10 09:05:08;;;;;;;;;11.25;8.25;;;;;25.83;37.13;101953.13;5078385;27;45449;-81
2022/08/10 09:07:52;;;;;;;;;8.25;6.00;;;;;25.91;36.50;101958.75;5077435;28;45914;-81
2022/08/10 09:10:38;;;;;;;;;8.50;7.00;;;;;26.03;36.53;101957.84;5078888;28;45401;-81
2022/08/10 09:13:18;;;;;;;;;12.00;7.00;;;;;26.12;36.22;101953.66;5077607;28;45401;-81
2022/08/10 09:16:04;;;;;;;;;6.25;6.25;;;;;26.22;36.44;101948.44;5077130;28;45610;-81
2022/08/10 09:18:55;;;;;;;;;9.00;6.75;;;;;26.32;36.14;101952.13;5077184;28;45491;-82
2022/08/10 09:21:27;;;;;;;;;8.25;6.25;;;;;26.41;35.76;101948.75;5077368;28;45361;-81
2022/08/10 09:24:29;;;;;;;;;7.50;7.50;;;;;26.53;35.68;101941.59;5078753;28;45463;-81
2022/08/10 09:26:57;;;;;;;;;9.00;9.00;;;;;26.64;35.56;101940.78;5094072;27;48461;-81
2022/08/10 09:29:24;;;;;;;;;9.25;8.25;;;;;26.75;35.38;101943.47;5077329;28;45805;-81
2022/08/10 09:31:58;;;;;;;;;7.50;5.75;;;;;26.84;35.43;101940.06;5077128;28;45443;-81
2022/08/10 09:34:43;;;;;;;;;11.25;7.00;;;;;26.94;35.30;101934.84;5110792;27;45328;-81
2022/08/10 09:37:34;;;;;;;;;8.75;7.25;;;;;27.05;34.90;101934.00;5110895;27;46825;-81
2022/08/10 09:40:08;;;;;;;;;11.00;7.50;;;;;27.12;34.66;101929.84;5111193;27;45335;-81
2022/08/10 09:42:44;;;;;;;;;7.00;6.00;;;;;27.22;34.29;101937.97;5075705;28;45384;-81
2022/08/10 09:45:31;;;;;;;;;7.00;7.00;;;;;27.31;34.13;101931.91;5078134;28;45292;-81
2022/08/10 09:48:05;;;;;;;;;10.25;7.50;;;;;27.40;34.13;101935.66;5077713;28;45429;-81
2022/08/10 09:50:52;;;;;;;;;8.75;7.75;;;;;27.48;34.15;101930.53;5111064;27;45949;-81
2022/08/10 09:53:38;;;;;;;;;7.75;7.25;;;;;27.57;33.92;101924.41;5078236;27;45374;-81
2022/08/10 09:56:22;;;;;;;;;10.50;10.00;;;;;27.69;33.51;101927.06;5076672;28;45402;-81
2022/08/10 09:59:18;;;;;;;;;9.00;8.00;;;;;27.78;33.09;101921.78;5077905;28;46447;-81
2022/08/10 10:02:14;;;;;;;;;6.00;6.00;;;;;27.87;33.43;101919.31;5110871;27;45952;-81
2022/08/10 10:05:02;;;;;;;;;7.75;7.75;;;;;27.98;32.99;101920.13;5077785;27;45415;-81
2022/08/10 10:07:28;;;;;;;;;8.75;7.25;;;;;28.06;33.23;101910.63;5077817;27;45145;-81
2022/08/10 10:10:04;;;;;;;;;8.00;6.00;;;;;28.16;32.79;101916.91;5077525;27;45320;-81
2022/08/10 10:12:58;;;;;;;;;9.00;9.00;;;;;28.24;32.99;101914.41;5077890;28;45737;-81
2022/08/10 10:15:30;;;;;;;;;9.75;9.75;;;;;28.35;33.09;101903.63;5076563;28;45236;-81
2022/08/10 10:18:01;;;;;;;;;8.25;8.25;;;;;28.46;32.50;101901.84;5077398;27;46085;-81
2022/08/10 10:20:47;;;;;;;;;9.00;9.00;;;;;28.54;32.48;101897.53;5077734;28;45418;-81
2022/08/10 10:23:49;;;;;;;;;7.50;7.50;;;;;28.68;31.48;101895.50;5077547;28;45771;-81
2022/08/10 10:26:43;;;;;;;;;6.50;6.50;;;;;28.80;31.23;101890.88;5037974;28;45722;-81
2022/08/10 10:29:36;;;;;;;;;7.25;7.25;;;;;28.95;31.02;101887.66;5051925;28;45358;-81
2022/08/10 10:32:25;;;;;;;;;8.75;8.25;;;;;29.07;30.74;101885.72;5054314;28;45464;-82
2022/08/10 10:35:15;;;;;;;;;8.00;7.00;;;;;29.15;30.51;101888.59;5054842;28;45740;-81
2022/08/10 10:37:41;;;;;;;;;6.25;6.25;;;;;29.24;30.36;101878.88;5032947;28;45410;-81
2022/08/10 10:40:07;;;;;;;;;10.25;9.25;;;;;29.31;31.49;101869.28;5071765;28;45522;-82
2022/08/10 10:43:00;;;;;;;;;9.25;7.75;;;;;29.42;29.97;101875.50;5071389;28;47331;-81
2022/08/10 10:46:01;;;;;;;;;7.00;5.50;;;;;29.58;29.56;101872.25;5054363;28;45400;-82
2022/08/10 10:48:54;;;;;;;;;8.50;7.25;;;;;29.71;29.44;101872.81;5054686;28;45369;-81
2022/08/10 10:51:31;;;;;;;;;8.00;7.00;;;;;29.83;28.83;101866.34;5054710;28;45430;-81
2022/08/10 10:54:01;;;;;;;;;9.25;7.00;;;;;29.92;28.73;101862.81;5053981;28;46508;-81
2022/08/10 10:56:54;;;;;;;;;7.25;7.25;;;;;30.02;29.09;101865.47;5054251;28;45425;-81
2022/08/10 10:59:35;;;;;;;;;7.00;6.00;;;;;30.15;28.19;101865.16;5054680;28;45387;-82
2022/08/10 11:02:13;;;;;;;;;7.25;6.25;;;;;30.28;28.43;101856.78;5054342;28;45670;-81
2022/08/10 11:04:49;;;;;;;;;8.75;6.00;;;;;30.43;27.87;101847.25;5063302;27;45420;-81
2022/08/10 11:07:33;;;;;;;;;10.25;6.25;;;;;30.60;28.23;101848.31;5075642;28;45901;-81
2022/08/10 11:10:01;;;;;;;;;7.00;7.00;;;;;30.77;27.52;101852.03;5075924;28;45487;-81
2022/08/10 11:12:27;;;;;;;;;8.00;7.75;;;;;30.92;26.49;101846.19;5075961;28;45262;-81
2022/08/10 11:15:23;;;;;;;;;7.00;5.67;;;;;31.05;26.22;101842.16;5076625;28;45459;-82
2022/08/10 11:17:58;;;;;;;;;8.50;6.50;;;;;31.21;25.99;101835.22;5074949;28;45429;-82
2022/08/10 11:20:32;;;;;;;;;6.50;6.50;;;;;31.35;25.75;101834.69;5075739;28;45324;-82
2022/08/10 11:23:16;;;;;;;;;9.25;7.25;;;;;31.51;25.38;101838.56;5075582;28;45482;-81
2022/08/10 11:25:47;;;;;;;;;5.25;5.25;;;;;31.68;24.78;101829.59;5076520;27;46495;-82
2022/08/10 11:28:54;;;;;;;;;9.00;7.50;;;;;31.80;24.24;101831.03;5058741;28;45882;-81
2022/08/10 11:31:37;;;;;;;;;9.25;6.50;;;;;31.97;24.48;101826.59;5071230;28;45317;-81
2022/08/10 11:34:54;;;;;;;;;7.00;7.00;;;;;32.12;24.23;101818.81;5038581;28;45428;-81
2022/08/10 11:37:37;;;;;;;;;9.25;7.75;;;;;32.44;23.78;101811.88;4994003;28;46924;-81
2022/08/10 11:40:27;;;;;;;;;5.50;5.00;;;;;32.74;23.07;101813.16;4977551;28;45363;-81
2022/08/10 11:42:55;;;;;;;;;7.25;5.50;;;;;33.04;22.77;101808.16;4994117;28;45418;-82
2022/08/10 11:45:28;;;;;;;;;8.00;5.75;;;;;33.41;22.92;101806.03;4993868;28;45484;-81
2022/08/10 11:47:58;;;;;;;;;8.25;6.00;;;;;34.12;21.93;101816.06;4977306;28;46515;-82
2022/08/10 11:50:32;;;;;;;;;8.25;7.25;;;;;37.16;20.60;101812.44;4977499;28;45880;-82
2022/08/10 11:53:14;;;;;;;;;6.00;5.75;;;;;40.72;17.87;101820.06;4977578;28;45476;-82